Aviation Digital Data Service (ADDS)

Output produced by METARs form (1727 UTC 03 June 2020)
found at http://www.aviationweather.gov/metar/data/
 
METAR text: UKBB 031700Z 27002MPS CAVOK 14/09 Q1005 R18L/CLRD// NOSIG
Conditions at: UKBB (BORISPOL'/KIEV , UA) observed 1700 UTC 03 June 2020
Temperature: 14.0°C (57°F)
Dewpoint: 9.0°C (48°F) [RH = 72%]
Pressure (altimeter): 29.68 inches Hg (1005.0 mb)
Winds: from the W (270 degrees) at 5 MPH (4 knots; 2.1 m/s)
Visibility: 6 or more miles (10+ km)
Ceiling: ceiling and visibility are OK
Clouds: unknown
Weather: no significant weather observed at this time

METAR text: UKBB 031630Z VRB01MPS CAVOK 14/08 Q1005 R18L/CLRD// NOSIG
Conditions at: UKBB (BORISPOL'/KIEV , UA) observed 1630 UTC 03 June 2020
Temperature: 14.0°C (57°F)
Dewpoint: 8.0°C (46°F) [RH = 67%]
Pressure (altimeter): 29.68 inches Hg (1005.0 mb)
Winds: variable direction winds at 2 MPH (2 knots; 1.0 m/s)
Visibility: 6 or more miles (10+ km)
Ceiling: ceiling and visibility are OK
Clouds: unknown
Weather: no significant weather observed at this time

METAR text: UKBB 031600Z 25003MPS CAVOK 14/09 Q1005 R18L/CLRD// NOSIG
Conditions at: UKBB (BORISPOL'/KIEV , UA) observed 1600 UTC 03 June 2020
Temperature: 14.0°C (57°F)
Dewpoint: 9.0°C (48°F) [RH = 72%]
Pressure (altimeter): 29.68 inches Hg (1005.0 mb)
Winds: from the WSW (250 degrees) at 7 MPH (6 knots; 3.1 m/s)
Visibility: 6 or more miles (10+ km)
Ceiling: ceiling and visibility are OK
Clouds: unknown
Weather: no significant weather observed at this time

METAR text: UKBB 031530Z 27003MPS 230V300 9999 FEW040 15/09 Q1005 R18L/CLRD// NOSIG
Conditions at: UKBB (BORISPOL'/KIEV , UA) observed 1530 UTC 03 June 2020
Temperature: 15.0°C (59°F)
Dewpoint: 9.0°C (48°F) [RH = 67%]
Pressure (altimeter): 29.68 inches Hg (1005.0 mb)
Winds: from the W (270 degrees) at 7 MPH (6 knots; 3.1 m/s)
Visibility: 6 or more miles (10+ km)
Ceiling: at least 12,000 feet AGL
Clouds: few clouds at 4000 feet AGL
Weather: no significant weather observed at this time

METAR text: UKBB 031500Z 27003MPS CAVOK 15/08 Q1005 R18L/CLRD// NOSIG
Conditions at: UKBB (BORISPOL'/KIEV , UA) observed 1500 UTC 03 June 2020
Temperature: 15.0°C (59°F)
Dewpoint: 8.0°C (46°F) [RH = 63%]
Pressure (altimeter): 29.68 inches Hg (1005.0 mb)
Winds: from the W (270 degrees) at 7 MPH (6 knots; 3.1 m/s)
Visibility: 6 or more miles (10+ km)
Ceiling: ceiling and visibility are OK
Clouds: unknown
Weather: no significant weather observed at this time

METAR text: UKBB 031430Z 28003MPS 240V310 CAVOK 16/08 Q1005 R18L/CLRD// NOSIG
Conditions at: UKBB (BORISPOL'/KIEV , UA) observed 1430 UTC 03 June 2020
Temperature: 16.0°C (61°F)
Dewpoint: 8.0°C (46°F) [RH = 59%]
Pressure (altimeter): 29.68 inches Hg (1005.0 mb)
Winds: from the W (280 degrees) at 7 MPH (6 knots; 3.1 m/s)
Visibility: 6 or more miles (10+ km)
Ceiling: ceiling and visibility are OK
Clouds: unknown
Weather: no significant weather observed at this time

METAR text: UKBB 031400Z 26004MPS 230V290 9999 FEW040 17/10 Q1005 R18L/CLRD// NOSIG
Conditions at: UKBB (BORISPOL'/KIEV , UA) observed 1400 UTC 03 June 2020
Temperature: 17.0°C (63°F)
Dewpoint: 10.0°C (50°F) [RH = 63%]
Pressure (altimeter): 29.68 inches Hg (1005.0 mb)
Winds: from the W (260 degrees) at 9 MPH (8 knots; 4.1 m/s)
Visibility: 6 or more miles (10+ km)
Ceiling: at least 12,000 feet AGL
Clouds: few clouds at 4000 feet AGL
Weather: no significant weather observed at this time

METAR text: UKBB 031330Z 26003MPS CAVOK 16/08 Q1005 R18L/CLRD// NOSIG
Conditions at: UKBB (BORISPOL'/KIEV , UA) observed 1330 UTC 03 June 2020
Temperature: 16.0°C (61°F)
Dewpoint: 8.0°C (46°F) [RH = 59%]
Pressure (altimeter): 29.68 inches Hg (1005.0 mb)
Winds: from the W (260 degrees) at 7 MPH (6 knots; 3.1 m/s)
Visibility: 6 or more miles (10+ km)
Ceiling: ceiling and visibility are OK
Clouds: unknown
Weather: no significant weather observed at this time

METAR text: UKBB 031300Z 24002MPS 160V290 9999 FEW040 17/08 Q1005 R18L/CLRD// NOSIG
Conditions at: UKBB (BORISPOL'/KIEV , UA) observed 1300 UTC 03 June 2020
Temperature: 17.0°C (63°F)
Dewpoint: 8.0°C (46°F) [RH = 55%]
Pressure (altimeter): 29.68 inches Hg (1005.0 mb)
Winds: from the WSW (240 degrees) at 5 MPH (4 knots; 2.1 m/s)
Visibility: 6 or more miles (10+ km)
Ceiling: at least 12,000 feet AGL
Clouds: few clouds at 4000 feet AGL
Weather: no significant weather observed at this time

METAR text: UKBB 031230Z 13005MPS CAVOK 18/06 Q1005 R18L/CLRD// NOSIG
Conditions at: UKBB (BORISPOL'/KIEV , UA) observed 1230 UTC 03 June 2020
Temperature: 18.0°C (64°F)
Dewpoint: 6.0°C (43°F) [RH = 45%]
Pressure (altimeter): 29.68 inches Hg (1005.0 mb)
Winds: from the SE (130 degrees) at 12 MPH (10 knots; 5.1 m/s)
Visibility: 6 or more miles (10+ km)
Ceiling: ceiling and visibility are OK
Clouds: unknown
Weather: no significant weather observed at this time

METAR text: UKBB 031200Z 14005MPS 110V170 CAVOK 20/08 Q1005 R18L/CLRD// NOSIG
Conditions at: UKBB (BORISPOL'/KIEV , UA) observed 1200 UTC 03 June 2020
Temperature: 20.0°C (68°F)
Dewpoint: 8.0°C (46°F) [RH = 46%]
Pressure (altimeter): 29.68 inches Hg (1005.0 mb)
Winds: from the SE (140 degrees) at 12 MPH (10 knots; 5.1 m/s)
Visibility: 6 or more miles (10+ km)
Ceiling: ceiling and visibility are OK
Clouds: unknown
Weather: no significant weather observed at this time

METAR text: UKBB 031130Z 15006MPS CAVOK 20/07 Q1005 R18L/CLRD// NOSIG
Conditions at: UKBB (BORISPOL'/KIEV , UA) observed 1130 UTC 03 June 2020
Temperature: 20.0°C (68°F)
Dewpoint: 7.0°C (45°F) [RH = 43%]
Pressure (altimeter): 29.68 inches Hg (1005.0 mb)
Winds: from the SSE (150 degrees) at 14 MPH (12 knots; 6.2 m/s)
Visibility: 6 or more miles (10+ km)
Ceiling: ceiling and visibility are OK
Clouds: unknown
Weather: no significant weather observed at this time

METAR text: UKBB 031100Z 17007MPS CAVOK 19/07 Q1005 R18L/CLRD// NOSIG
Conditions at: UKBB (BORISPOL'/KIEV , UA) observed 1100 UTC 03 June 2020
Temperature: 19.0°C (66°F)
Dewpoint: 7.0°C (45°F) [RH = 46%]
Pressure (altimeter): 29.68 inches Hg (1005.0 mb)
Winds: from the S (170 degrees) at 16 MPH (14 knots; 7.2 m/s)
Visibility: 6 or more miles (10+ km)
Ceiling: ceiling and visibility are OK
Clouds: unknown
Weather: no significant weather observed at this time

METAR text: UKBB 031030Z 17007MPS CAVOK 20/07 Q1005 R18L/CLRD// NOSIG
Conditions at: UKBB (BORISPOL'/KIEV , UA) observed 1030 UTC 03 June 2020
Temperature: 20.0°C (68°F)
Dewpoint: 7.0°C (45°F) [RH = 43%]
Pressure (altimeter): 29.68 inches Hg (1005.0 mb)
Winds: from the S (170 degrees) at 16 MPH (14 knots; 7.2 m/s)
Visibility: 6 or more miles (10+ km)
Ceiling: ceiling and visibility are OK
Clouds: unknown
Weather: no significant weather observed at this time

METAR text: UKBB 031000Z 18006MPS 9999 SCT049 18/07 Q1006 R18L/CLRD// NOSIG
Conditions at: UKBB (BORISPOL'/KIEV , UA) observed 1000 UTC 03 June 2020
Temperature: 18.0°C (64°F)
Dewpoint: 7.0°C (45°F) [RH = 49%]
Pressure (altimeter): 29.70 inches Hg (1006.0 mb)
Winds: from the S (180 degrees) at 14 MPH (12 knots; 6.2 m/s)
Visibility: 6 or more miles (10+ km)
Ceiling: at least 12,000 feet AGL
Clouds: scattered clouds at 4900 feet AGL
Weather: no significant weather observed at this time

METAR text: UKBB 030930Z 18007MPS 150V210 9999 SCT040 18/08 Q1006 R18L/CLRD// NOSIG
Conditions at: UKBB (BORISPOL'/KIEV , UA) observed 0930 UTC 03 June 2020
Temperature: 18.0°C (64°F)
Dewpoint: 8.0°C (46°F) [RH = 52%]
Pressure (altimeter): 29.70 inches Hg (1006.0 mb)
Winds: from the S (180 degrees) at 16 MPH (14 knots; 7.2 m/s)
Visibility: 6 or more miles (10+ km)
Ceiling: at least 12,000 feet AGL
Clouds: scattered clouds at 4000 feet AGL
Weather: no significant weather observed at this time

METAR text: UKBB 030900Z 17006MPS 9999 FEW040 17/07 Q1006 R18L/CLRD// NOSIG
Conditions at: UKBB (BORISPOL'/KIEV , UA) observed 0900 UTC 03 June 2020
Temperature: 17.0°C (63°F)
Dewpoint: 7.0°C (45°F) [RH = 52%]
Pressure (altimeter): 29.70 inches Hg (1006.0 mb)
Winds: from the S (170 degrees) at 14 MPH (12 knots; 6.2 m/s)
Visibility: 6 or more miles (10+ km)
Ceiling: at least 12,000 feet AGL
Clouds: few clouds at 4000 feet AGL
Weather: no significant weather observed at this time

METAR text: UKBB 030830Z 18005MPS 9999 FEW040 17/08 Q1006 R18L/CLRD// NOSIG
Conditions at: UKBB (BORISPOL'/KIEV , UA) observed 0830 UTC 03 June 2020
Temperature: 17.0°C (63°F)
Dewpoint: 8.0°C (46°F) [RH = 55%]
Pressure (altimeter): 29.70 inches Hg (1006.0 mb)
Winds: from the S (180 degrees) at 12 MPH (10 knots; 5.1 m/s)
Visibility: 6 or more miles (10+ km)
Ceiling: at least 12,000 feet AGL
Clouds: few clouds at 4000 feet AGL
Weather: no significant weather observed at this time

METAR text: UKBB 030800Z 19006MPS CAVOK 16/07 Q1006 R18L/CLRD// NOSIG
Conditions at: UKBB (BORISPOL'/KIEV , UA) observed 0800 UTC 03 June 2020
Temperature: 16.0°C (61°F)
Dewpoint: 7.0°C (45°F) [RH = 55%]
Pressure (altimeter): 29.70 inches Hg (1006.0 mb)
Winds: from the S (190 degrees) at 14 MPH (12 knots; 6.2 m/s)
Visibility: 6 or more miles (10+ km)
Ceiling: ceiling and visibility are OK
Clouds: unknown
Weather: no significant weather observed at this time

METAR text: UKBB 030730Z 18006MPS CAVOK 16/07 Q1006 R18L/CLRD// NOSIG
Conditions at: UKBB (BORISPOL'/KIEV , UA) observed 0730 UTC 03 June 2020
Temperature: 16.0°C (61°F)
Dewpoint: 7.0°C (45°F) [RH = 55%]
Pressure (altimeter): 29.70 inches Hg (1006.0 mb)
Winds: from the S (180 degrees) at 14 MPH (12 knots; 6.2 m/s)
Visibility: 6 or more miles (10+ km)
Ceiling: ceiling and visibility are OK
Clouds: unknown
Weather: no significant weather observed at this time

METAR text: UKBB 030700Z 19006MPS 9999 FEW032 16/08 Q1006 R18L/CLRD// NOSIG
Conditions at: UKBB (BORISPOL'/KIEV , UA) observed 0700 UTC 03 June 2020
Temperature: 16.0°C (61°F)
Dewpoint: 8.0°C (46°F) [RH = 59%]
Pressure (altimeter): 29.70 inches Hg (1006.0 mb)
Winds: from the S (190 degrees) at 14 MPH (12 knots; 6.2 m/s)
Visibility: 6 or more miles (10+ km)
Ceiling: at least 12,000 feet AGL
Clouds: few clouds at 3200 feet AGL
Weather: no significant weather observed at this time

METAR text: UKBB 030630Z 19006MPS CAVOK 15/07 Q1006 R18L/CLRD// NOSIG
Conditions at: UKBB (BORISPOL'/KIEV , UA) observed 0630 UTC 03 June 2020
Temperature: 15.0°C (59°F)
Dewpoint: 7.0°C (45°F) [RH = 59%]
Pressure (altimeter): 29.70 inches Hg (1006.0 mb)
Winds: from the S (190 degrees) at 14 MPH (12 knots; 6.2 m/s)
Visibility: 6 or more miles (10+ km)
Ceiling: ceiling and visibility are OK
Clouds: unknown
Weather: no significant weather observed at this time

METAR text: UKBB 030600Z 18006MPS 140V200 CAVOK 14/07 Q1006 R18L/CLRD// NOSIG
Conditions at: UKBB (BORISPOL'/KIEV , UA) observed 0600 UTC 03 June 2020
Temperature: 14.0°C (57°F)
Dewpoint: 7.0°C (45°F) [RH = 63%]
Pressure (altimeter): 29.70 inches Hg (1006.0 mb)
Winds: from the S (180 degrees) at 14 MPH (12 knots; 6.2 m/s)
Visibility: 6 or more miles (10+ km)
Ceiling: ceiling and visibility are OK
Clouds: unknown
Weather: no significant weather observed at this time

METAR text: UKBB 030530Z 16005MPS CAVOK 13/07 Q1006 R18L/CLRD// NOSIG
Conditions at: UKBB (BORISPOL'/KIEV , UA) observed 0530 UTC 03 June 2020
Temperature: 13.0°C (55°F)
Dewpoint: 7.0°C (45°F) [RH = 67%]
Pressure (altimeter): 29.70 inches Hg (1006.0 mb)
Winds: from the SSE (160 degrees) at 12 MPH (10 knots; 5.1 m/s)
Visibility: 6 or more miles (10+ km)
Ceiling: ceiling and visibility are OK
Clouds: unknown
Weather: no significant weather observed at this time

METAR text: UKBB 030500Z 16005MPS CAVOK 12/08 Q1006 R18L/CLRD// NOSIG
Conditions at: UKBB (BORISPOL'/KIEV , UA) observed 0500 UTC 03 June 2020
Temperature: 12.0°C (54°F)
Dewpoint: 8.0°C (46°F) [RH = 76%]
Pressure (altimeter): 29.70 inches Hg (1006.0 mb)
Winds: from the SSE (160 degrees) at 12 MPH (10 knots; 5.1 m/s)
Visibility: 6 or more miles (10+ km)
Ceiling: ceiling and visibility are OK
Clouds: unknown
Weather: no significant weather observed at this time

METAR text: UKBB 030430Z 17004MPS CAVOK 11/08 Q1005 R18L/CLRD// NOSIG
Conditions at: UKBB (BORISPOL'/KIEV , UA) observed 0430 UTC 03 June 2020
Temperature: 11.0°C (52°F)
Dewpoint: 8.0°C (46°F) [RH = 82%]
Pressure (altimeter): 29.68 inches Hg (1005.0 mb)
Winds: from the S (170 degrees) at 9 MPH (8 knots; 4.1 m/s)
Visibility: 6 or more miles (10+ km)
Ceiling: ceiling and visibility are OK
Clouds: unknown
Weather: no significant weather observed at this time

METAR text: UKBB 030400Z 16004MPS CAVOK 10/07 Q1005 R18L/CLRD// NOSIG
Conditions at: UKBB (BORISPOL'/KIEV , UA) observed 0400 UTC 03 June 2020
Temperature: 10.0°C (50°F)
Dewpoint: 7.0°C (45°F) [RH = 82%]
Pressure (altimeter): 29.68 inches Hg (1005.0 mb)
Winds: from the SSE (160 degrees) at 9 MPH (8 knots; 4.1 m/s)
Visibility: 6 or more miles (10+ km)
Ceiling: ceiling and visibility are OK
Clouds: unknown
Weather: no significant weather observed at this time

METAR text: UKBB 030330Z 14005MPS CAVOK 09/07 Q1005 R36R/CLRD// NOSIG
Conditions at: UKBB (BORISPOL'/KIEV , UA) observed 0330 UTC 03 June 2020
Temperature: 9.0°C (48°F)
Dewpoint: 7.0°C (45°F) [RH = 87%]
Pressure (altimeter): 29.68 inches Hg (1005.0 mb)
Winds: from the SE (140 degrees) at 12 MPH (10 knots; 5.1 m/s)
Visibility: 6 or more miles (10+ km)
Ceiling: ceiling and visibility are OK
Clouds: unknown
Weather: no significant weather observed at this time

METAR text: UKBB 030300Z 15003MPS CAVOK 08/07 Q1005 R36R/CLRD// NOSIG
Conditions at: UKBB (BORISPOL'/KIEV , UA) observed 0300 UTC 03 June 2020
Temperature: 8.0°C (46°F)
Dewpoint: 7.0°C (45°F) [RH = 93%]
Pressure (altimeter): 29.68 inches Hg (1005.0 mb)
Winds: from the SSE (150 degrees) at 7 MPH (6 knots; 3.1 m/s)
Visibility: 6 or more miles (10+ km)
Ceiling: ceiling and visibility are OK
Clouds: unknown
Weather: no significant weather observed at this time

METAR text: UKBB 030230Z 15003MPS CAVOK 06/06 Q1005 R36R/CLRD// NOSIG
Conditions at: UKBB (BORISPOL'/KIEV , UA) observed 0230 UTC 03 June 2020
Temperature: 6.0°C (43°F)
Dewpoint: 6.0°C (43°F) [RH = 100%]
Pressure (altimeter): 29.68 inches Hg (1005.0 mb)
Winds: from the SSE (150 degrees) at 7 MPH (6 knots; 3.1 m/s)
Visibility: 6 or more miles (10+ km)
Ceiling: ceiling and visibility are OK
Clouds: unknown
Weather: no significant weather observed at this time

METAR text: UKBB 030200Z 14004MPS CAVOK 06/05 Q1005 R36R/CLRD// NOSIG
Conditions at: UKBB (BORISPOL'/KIEV , UA) observed 0200 UTC 03 June 2020
Temperature: 6.0°C (43°F)
Dewpoint: 5.0°C (41°F) [RH = 93%]
Pressure (altimeter): 29.68 inches Hg (1005.0 mb)
Winds: from the SE (140 degrees) at 9 MPH (8 knots; 4.1 m/s)
Visibility: 6 or more miles (10+ km)
Ceiling: ceiling and visibility are OK
Clouds: unknown
Weather: no significant weather observed at this time

METAR text: UKBB 030130Z 15004MPS CAVOK 07/06 Q1005 R36R/CLRD// NOSIG
Conditions at: UKBB (BORISPOL'/KIEV , UA) observed 0130 UTC 03 June 2020
Temperature: 7.0°C (45°F)
Dewpoint: 6.0°C (43°F) [RH = 93%]
Pressure (altimeter): 29.68 inches Hg (1005.0 mb)
Winds: from the SSE (150 degrees) at 9 MPH (8 knots; 4.1 m/s)
Visibility: 6 or more miles (10+ km)
Ceiling: ceiling and visibility are OK
Clouds: unknown
Weather: no significant weather observed at this time

METAR text: UKBB 030100Z 15004MPS CAVOK 06/05 Q1005 R36R/CLRD// NOSIG
Conditions at: UKBB (BORISPOL'/KIEV , UA) observed 0100 UTC 03 June 2020
Temperature: 6.0°C (43°F)
Dewpoint: 5.0°C (41°F) [RH = 93%]
Pressure (altimeter): 29.68 inches Hg (1005.0 mb)
Winds: from the SSE (150 degrees) at 9 MPH (8 knots; 4.1 m/s)
Visibility: 6 or more miles (10+ km)
Ceiling: ceiling and visibility are OK
Clouds: unknown
Weather: no significant weather observed at this time

METAR text: UKBB 030030Z 15003MPS CAVOK 06/06 Q1006 R36R/CLRD// NOSIG
Conditions at: UKBB (BORISPOL'/KIEV , UA) observed 0030 UTC 03 June 2020
Temperature: 6.0°C (43°F)
Dewpoint: 6.0°C (43°F) [RH = 100%]
Pressure (altimeter): 29.70 inches Hg (1006.0 mb)
Winds: from the SSE (150 degrees) at 7 MPH (6 knots; 3.1 m/s)
Visibility: 6 or more miles (10+ km)
Ceiling: ceiling and visibility are OK
Clouds: unknown
Weather: no significant weather observed at this time

METAR text: UKBB 030000Z 15003MPS CAVOK 07/06 Q1006 R36R/CLRD// NOSIG
Conditions at: UKBB (BORISPOL'/KIEV , UA) observed 0000 UTC 03 June 2020
Temperature: 7.0°C (45°F)
Dewpoint: 6.0°C (43°F) [RH = 93%]
Pressure (altimeter): 29.70 inches Hg (1006.0 mb)
Winds: from the SSE (150 degrees) at 7 MPH (6 knots; 3.1 m/s)
Visibility: 6 or more miles (10+ km)
Ceiling: ceiling and visibility are OK
Clouds: unknown
Weather: no significant weather observed at this time

METAR text: UKBB 022330Z 12002MPS CAVOK 08/07 Q1006 R18L/CLRD// NOSIG
Conditions at: UKBB (BORISPOL'/KIEV , UA) observed 2330 UTC 02 June 2020
Temperature: 8.0°C (46°F)
Dewpoint: 7.0°C (45°F) [RH = 93%]
Pressure (altimeter): 29.70 inches Hg (1006.0 mb)
Winds: from the ESE (120 degrees) at 5 MPH (4 knots; 2.1 m/s)
Visibility: 6 or more miles (10+ km)
Ceiling: ceiling and visibility are OK
Clouds: unknown
Weather: no significant weather observed at this time

METAR text: UKBB 022300Z 18002MPS CAVOK 07/06 Q1006 R18L/CLRD// NOSIG
Conditions at: UKBB (BORISPOL'/KIEV , UA) observed 2300 UTC 02 June 2020
Temperature: 7.0°C (45°F)
Dewpoint: 6.0°C (43°F) [RH = 93%]
Pressure (altimeter): 29.70 inches Hg (1006.0 mb)
Winds: from the S (180 degrees) at 5 MPH (4 knots; 2.1 m/s)
Visibility: 6 or more miles (10+ km)
Ceiling: ceiling and visibility are OK
Clouds: unknown
Weather: no significant weather observed at this time

METAR text: UKBB 022230Z 18002MPS CAVOK 08/07 Q1006 R18L/CLRD// NOSIG
Conditions at: UKBB (BORISPOL'/KIEV , UA) observed 2230 UTC 02 June 2020
Temperature: 8.0°C (46°F)
Dewpoint: 7.0°C (45°F) [RH = 93%]
Pressure (altimeter): 29.70 inches Hg (1006.0 mb)
Winds: from the S (180 degrees) at 5 MPH (4 knots; 2.1 m/s)
Visibility: 6 or more miles (10+ km)
Ceiling: ceiling and visibility are OK
Clouds: unknown
Weather: no significant weather observed at this time

METAR text: UKBB 022200Z 19003MPS CAVOK 08/07 Q1006 R18L/290050 NOSIG
Conditions at: UKBB (BORISPOL'/KIEV , UA) observed 2200 UTC 02 June 2020
Temperature: 8.0°C (46°F)
Dewpoint: 7.0°C (45°F) [RH = 93%]
Pressure (altimeter): 29.70 inches Hg (1006.0 mb)
Winds: from the S (190 degrees) at 7 MPH (6 knots; 3.1 m/s)
Visibility: 6 or more miles (10+ km)
Ceiling: ceiling and visibility are OK
Clouds: unknown
Weather: no significant weather observed at this time

METAR text: UKBB 022130Z 17002MPS 130V210 CAVOK 08/07 Q1006 R18L/290050 NOSIG
Conditions at: UKBB (BORISPOL'/KIEV , UA) observed 2130 UTC 02 June 2020
Temperature: 8.0°C (46°F)
Dewpoint: 7.0°C (45°F) [RH = 93%]
Pressure (altimeter): 29.70 inches Hg (1006.0 mb)
Winds: from the S (170 degrees) at 5 MPH (4 knots; 2.1 m/s)
Visibility: 6 or more miles (10+ km)
Ceiling: ceiling and visibility are OK
Clouds: unknown
Weather: no significant weather observed at this time

METAR text: UKBB 022100Z 15001MPS CAVOK 09/07 Q1006 R18L/290050 NOSIG
Conditions at: UKBB (BORISPOL'/KIEV , UA) observed 2100 UTC 02 June 2020
Temperature: 9.0°C (48°F)
Dewpoint: 7.0°C (45°F) [RH = 87%]
Pressure (altimeter): 29.70 inches Hg (1006.0 mb)
Winds: from the SSE (150 degrees) at 2 MPH (2 knots; 1.0 m/s)
Visibility: 6 or more miles (10+ km)
Ceiling: ceiling and visibility are OK
Clouds: unknown
Weather: no significant weather observed at this time

METAR text: UKBB 022030Z 14002MPS 9999 SCT040 09/08 Q1006 R18L/290050 NOSIG
Conditions at: UKBB (BORISPOL'/KIEV , UA) observed 2030 UTC 02 June 2020
Temperature: 9.0°C (48°F)
Dewpoint: 8.0°C (46°F) [RH = 93%]
Pressure (altimeter): 29.70 inches Hg (1006.0 mb)
Winds: from the SE (140 degrees) at 5 MPH (4 knots; 2.1 m/s)
Visibility: 6 or more miles (10+ km)
Ceiling: at least 12,000 feet AGL
Clouds: scattered clouds at 4000 feet AGL
Weather: no significant weather observed at this time

METAR text: UKBB 022000Z 20001MPS 9999 SCT040 10/08 Q1006 R18L/290050 NOSIG
Conditions at: UKBB (BORISPOL'/KIEV , UA) observed 2000 UTC 02 June 2020
Temperature: 10.0°C (50°F)
Dewpoint: 8.0°C (46°F) [RH = 87%]
Pressure (altimeter): 29.70 inches Hg (1006.0 mb)
Winds: from the SSW (200 degrees) at 2 MPH (2 knots; 1.0 m/s)
Visibility: 6 or more miles (10+ km)
Ceiling: at least 12,000 feet AGL
Clouds: scattered clouds at 4000 feet AGL
Weather: no significant weather observed at this time

METAR text: UKBB 021930Z 17001MPS 9999 SCT040 09/08 Q1006 R18L/290050 NOSIG
Conditions at: UKBB (BORISPOL'/KIEV , UA) observed 1930 UTC 02 June 2020
Temperature: 9.0°C (48°F)
Dewpoint: 8.0°C (46°F) [RH = 93%]
Pressure (altimeter): 29.70 inches Hg (1006.0 mb)
Winds: from the S (170 degrees) at 2 MPH (2 knots; 1.0 m/s)
Visibility: 6 or more miles (10+ km)
Ceiling: at least 12,000 feet AGL
Clouds: scattered clouds at 4000 feet AGL
Weather: no significant weather observed at this time

METAR text: UKBB 021900Z 13002MPS 9999 FEW040 08/07 Q1006 R18L/290050 NOSIG
Conditions at: UKBB (BORISPOL'/KIEV , UA) observed 1900 UTC 02 June 2020
Temperature: 8.0°C (46°F)
Dewpoint: 7.0°C (45°F) [RH = 93%]
Pressure (altimeter): 29.70 inches Hg (1006.0 mb)
Winds: from the SE (130 degrees) at 5 MPH (4 knots; 2.1 m/s)
Visibility: 6 or more miles (10+ km)
Ceiling: at least 12,000 feet AGL
Clouds: few clouds at 4000 feet AGL
Weather: no significant weather observed at this time

METAR text: UKBB 021830Z 13002MPS CAVOK 09/07 Q1006 R18L/290050 NOSIG
Conditions at: UKBB (BORISPOL'/KIEV , UA) observed 1830 UTC 02 June 2020
Temperature: 9.0°C (48°F)
Dewpoint: 7.0°C (45°F) [RH = 87%]
Pressure (altimeter): 29.70 inches Hg (1006.0 mb)
Winds: from the SE (130 degrees) at 5 MPH (4 knots; 2.1 m/s)
Visibility: 6 or more miles (10+ km)
Ceiling: ceiling and visibility are OK
Clouds: unknown
Weather: no significant weather observed at this time

METAR text: UKBB 021800Z 14002MPS CAVOK 10/08 Q1006 R18L/290050 NOSIG
Conditions at: UKBB (BORISPOL'/KIEV , UA) observed 1800 UTC 02 June 2020
Temperature: 10.0°C (50°F)
Dewpoint: 8.0°C (46°F) [RH = 87%]
Pressure (altimeter): 29.70 inches Hg (1006.0 mb)
Winds: from the SE (140 degrees) at 5 MPH (4 knots; 2.1 m/s)
Visibility: 6 or more miles (10+ km)
Ceiling: ceiling and visibility are OK
Clouds: unknown
Weather: no significant weather observed at this time

METAR text: UKBB 021730Z 15002MPS CAVOK 11/08 Q1006 R18L/290050 NOSIG
Conditions at: UKBB (BORISPOL'/KIEV , UA) observed 1730 UTC 02 June 2020
Temperature: 11.0°C (52°F)
Dewpoint: 8.0°C (46°F) [RH = 82%]
Pressure (altimeter): 29.70 inches Hg (1006.0 mb)
Winds: from the SSE (150 degrees) at 5 MPH (4 knots; 2.1 m/s)
Visibility: 6 or more miles (10+ km)
Ceiling: ceiling and visibility are OK
Clouds: unknown
Weather: no significant weather observed at this time

METAR text: UKBB 021700Z 17003MPS CAVOK 11/09 Q1006 R18L/290050 NOSIG
Conditions at: UKBB (BORISPOL'/KIEV , UA) observed 1700 UTC 02 June 2020
Temperature: 11.0°C (52°F)
Dewpoint: 9.0°C (48°F) [RH = 87%]
Pressure (altimeter): 29.70 inches Hg (1006.0 mb)
Winds: from the S (170 degrees) at 7 MPH (6 knots; 3.1 m/s)
Visibility: 6 or more miles (10+ km)
Ceiling: ceiling and visibility are OK
Clouds: unknown
Weather: no significant weather observed at this time

METAR text: UKBB 021630Z 16003MPS 9999 FEW032CB BKN040 12/08 Q1005 R18L/290050 NOSIG
Conditions at: UKBB (BORISPOL'/KIEV , UA) observed 1630 UTC 02 June 2020
Temperature: 12.0°C (54°F)
Dewpoint: 8.0°C (46°F) [RH = 76%]
Pressure (altimeter): 29.68 inches Hg (1005.0 mb)
Winds: from the SSE (160 degrees) at 7 MPH (6 knots; 3.1 m/s)
Visibility: 6 or more miles (10+ km)
Ceiling: 4000 feet AGL
Clouds: few clouds at 3200 feet AGL
broken clouds at 4000 feet AGL
Weather: no significant weather observed at this time

METAR text: UKBB 021600Z 17006MPS 9999 FEW032CB BKN040 12/07 Q1005 R18L/CLRD// NOSIG
Conditions at: UKBB (BORISPOL'/KIEV , UA) observed 1600 UTC 02 June 2020
Temperature: 12.0°C (54°F)
Dewpoint: 7.0°C (45°F) [RH = 71%]
Pressure (altimeter): 29.68 inches Hg (1005.0 mb)
Winds: from the S (170 degrees) at 14 MPH (12 knots; 6.2 m/s)
Visibility: 6 or more miles (10+ km)
Ceiling: 4000 feet AGL
Clouds: few clouds at 3200 feet AGL
broken clouds at 4000 feet AGL
Weather: no significant weather observed at this time

METAR text: UKBB 021530Z 16005G10MPS 9999 FEW032CB BKN040 14/07 Q1005 R18L/CLRD// NOSIG
Conditions at: UKBB (BORISPOL'/KIEV , UA) observed 1530 UTC 02 June 2020
Temperature: 14.0°C (57°F)
Dewpoint: 7.0°C (45°F) [RH = 63%]
Pressure (altimeter): 29.68 inches Hg (1005.0 mb)
Winds: from the SSE (160 degrees) at 12 MPH (10 knots; 5.1 m/s)
gusting to 22 MPH (19 knots; 9.8 m/s)
Visibility: 6 or more miles (10+ km)
Ceiling: 4000 feet AGL
Clouds: few clouds at 3200 feet AGL
broken clouds at 4000 feet AGL
Weather: no significant weather observed at this time

METAR text: UKBB 021500Z 16004MPS 9999 BKN036 14/07 Q1005 R18L/CLRD// NOSIG
Conditions at: UKBB (BORISPOL'/KIEV , UA) observed 1500 UTC 02 June 2020
Temperature: 14.0°C (57°F)
Dewpoint: 7.0°C (45°F) [RH = 63%]
Pressure (altimeter): 29.68 inches Hg (1005.0 mb)
Winds: from the SSE (160 degrees) at 9 MPH (8 knots; 4.1 m/s)
Visibility: 6 or more miles (10+ km)
Ceiling: 3600 feet AGL
Clouds: broken clouds at 3600 feet AGL
Weather: no significant weather observed at this time

METAR text: UKBB 021430Z 17003MPS 150V210 9999 BKN032 15/07 Q1005 R18L/CLRD// NOSIG
Conditions at: UKBB (BORISPOL'/KIEV , UA) observed 1430 UTC 02 June 2020
Temperature: 15.0°C (59°F)
Dewpoint: 7.0°C (45°F) [RH = 59%]
Pressure (altimeter): 29.68 inches Hg (1005.0 mb)
Winds: from the S (170 degrees) at 7 MPH (6 knots; 3.1 m/s)
Visibility: 6 or more miles (10+ km)
Ceiling: 3200 feet AGL
Clouds: broken clouds at 3200 feet AGL
Weather: no significant weather observed at this time

METAR text: UKBB 021400Z 18004MPS 9999 BKN040 14/08 Q1006 R18L/CLRD// NOSIG
Conditions at: UKBB (BORISPOL'/KIEV , UA) observed 1400 UTC 02 June 2020
Temperature: 14.0°C (57°F)
Dewpoint: 8.0°C (46°F) [RH = 67%]
Pressure (altimeter): 29.70 inches Hg (1006.0 mb)
Winds: from the S (180 degrees) at 9 MPH (8 knots; 4.1 m/s)
Visibility: 6 or more miles (10+ km)
Ceiling: 4000 feet AGL
Clouds: broken clouds at 4000 feet AGL
Weather: no significant weather observed at this time

METAR text: UKBB 021330Z 20005MPS 9999 SCT032 13/07 Q1006 R18L/CLRD// NOSIG
Conditions at: UKBB (BORISPOL'/KIEV , UA) observed 1330 UTC 02 June 2020
Temperature: 13.0°C (55°F)
Dewpoint: 7.0°C (45°F) [RH = 67%]
Pressure (altimeter): 29.70 inches Hg (1006.0 mb)
Winds: from the SSW (200 degrees) at 12 MPH (10 knots; 5.1 m/s)
Visibility: 6 or more miles (10+ km)
Ceiling: at least 12,000 feet AGL
Clouds: scattered clouds at 3200 feet AGL
Weather: no significant weather observed at this time

METAR text: UKBB 021300Z 19007MPS 9999 SCT032 13/07 Q1006 R18L/CLRD// NOSIG
Conditions at: UKBB (BORISPOL'/KIEV , UA) observed 1300 UTC 02 June 2020
Temperature: 13.0°C (55°F)
Dewpoint: 7.0°C (45°F) [RH = 67%]
Pressure (altimeter): 29.70 inches Hg (1006.0 mb)
Winds: from the S (190 degrees) at 16 MPH (14 knots; 7.2 m/s)
Visibility: 6 or more miles (10+ km)
Ceiling: at least 12,000 feet AGL
Clouds: scattered clouds at 3200 feet AGL
Weather: no significant weather observed at this time

METAR text: UKBB 021230Z 20004MPS 160V230 9999 SCT028 13/07 Q1006 R18L/CLRD// NOSIG
Conditions at: UKBB (BORISPOL'/KIEV , UA) observed 1230 UTC 02 June 2020
Temperature: 13.0°C (55°F)
Dewpoint: 7.0°C (45°F) [RH = 67%]
Pressure (altimeter): 29.70 inches Hg (1006.0 mb)
Winds: from the SSW (200 degrees) at 9 MPH (8 knots; 4.1 m/s)
Visibility: 6 or more miles (10+ km)
Ceiling: at least 12,000 feet AGL
Clouds: scattered clouds at 2800 feet AGL
Weather: no significant weather observed at this time

METAR text: UKBB 021200Z 24003MPS 9999 -SHRA SCT028CB 13/07 Q1006 R18L/CLRD// NOSIG
Conditions at: UKBB (BORISPOL'/KIEV , UA) observed 1200 UTC 02 June 2020
Temperature: 13.0°C (55°F)
Dewpoint: 7.0°C (45°F) [RH = 67%]
Pressure (altimeter): 29.70 inches Hg (1006.0 mb)
Winds: from the WSW (240 degrees) at 7 MPH (6 knots; 3.1 m/s)
Visibility: 6 or more miles (10+ km)
Ceiling: at least 12,000 feet AGL
Clouds: scattered clouds at 2800 feet AGL
Weather: -SHRA  (light rain showers)

METAR text: UKBB 021130Z 19007MPS 9999 SCT032 13/06 Q1006 R18L/CLRD// NOSIG
Conditions at: UKBB (BORISPOL'/KIEV , UA) observed 1130 UTC 02 June 2020
Temperature: 13.0°C (55°F)
Dewpoint: 6.0°C (43°F) [RH = 62%]
Pressure (altimeter): 29.70 inches Hg (1006.0 mb)
Winds: from the S (190 degrees) at 16 MPH (14 knots; 7.2 m/s)
Visibility: 6 or more miles (10+ km)
Ceiling: at least 12,000 feet AGL
Clouds: scattered clouds at 3200 feet AGL
Weather: no significant weather observed at this time

METAR text: UKBB 021100Z 17005MPS 9999 BKN040 12/07 Q1006 R18L/CLRD// NOSIG
Conditions at: UKBB (BORISPOL'/KIEV , UA) observed 1100 UTC 02 June 2020
Temperature: 12.0°C (54°F)
Dewpoint: 7.0°C (45°F) [RH = 71%]
Pressure (altimeter): 29.70 inches Hg (1006.0 mb)
Winds: from the S (170 degrees) at 12 MPH (10 knots; 5.1 m/s)
Visibility: 6 or more miles (10+ km)
Ceiling: 4000 feet AGL
Clouds: broken clouds at 4000 feet AGL
Weather: no significant weather observed at this time

METAR text: UKBB 021030Z 19006MPS 9999 BKN037 12/06 Q1006 R18L/CLRD// NOSIG
Conditions at: UKBB (BORISPOL'/KIEV , UA) observed 1030 UTC 02 June 2020
Temperature: 12.0°C (54°F)
Dewpoint: 6.0°C (43°F) [RH = 67%]
Pressure (altimeter): 29.70 inches Hg (1006.0 mb)
Winds: from the S (190 degrees) at 14 MPH (12 knots; 6.2 m/s)
Visibility: 6 or more miles (10+ km)
Ceiling: 3700 feet AGL
Clouds: broken clouds at 3700 feet AGL
Weather: no significant weather observed at this time

METAR text: UKBB 021000Z 18005MPS 9999 SCT028 12/06 Q1006 R18L/CLRD// NOSIG
Conditions at: UKBB (BORISPOL'/KIEV , UA) observed 1000 UTC 02 June 2020
Temperature: 12.0°C (54°F)
Dewpoint: 6.0°C (43°F) [RH = 67%]
Pressure (altimeter): 29.70 inches Hg (1006.0 mb)
Winds: from the S (180 degrees) at 12 MPH (10 knots; 5.1 m/s)
Visibility: 6 or more miles (10+ km)
Ceiling: at least 12,000 feet AGL
Clouds: scattered clouds at 2800 feet AGL
Weather: no significant weather observed at this time

METAR text: UKBB 020930Z 19005MPS 9999 SCT024 12/06 Q1006 R18L/CLRD// NOSIG
Conditions at: UKBB (BORISPOL'/KIEV , UA) observed 0930 UTC 02 June 2020
Temperature: 12.0°C (54°F)
Dewpoint: 6.0°C (43°F) [RH = 67%]
Pressure (altimeter): 29.70 inches Hg (1006.0 mb)
Winds: from the S (190 degrees) at 12 MPH (10 knots; 5.1 m/s)
Visibility: 6 or more miles (10+ km)
Ceiling: at least 12,000 feet AGL
Clouds: scattered clouds at 2400 feet AGL
Weather: no significant weather observed at this time

METAR text: UKBB 020900Z 20005MPS 9999 SCT024 BKN040 13/07 Q1006 R18L/CLRD// NOSIG
Conditions at: UKBB (BORISPOL'/KIEV , UA) observed 0900 UTC 02 June 2020
Temperature: 13.0°C (55°F)
Dewpoint: 7.0°C (45°F) [RH = 67%]
Pressure (altimeter): 29.70 inches Hg (1006.0 mb)
Winds: from the SSW (200 degrees) at 12 MPH (10 knots; 5.1 m/s)
Visibility: 6 or more miles (10+ km)
Ceiling: 4000 feet AGL
Clouds: scattered clouds at 2400 feet AGL
broken clouds at 4000 feet AGL
Weather: no significant weather observed at this time

METAR text: UKBB 020830Z 19005MPS 9999 SCT024 BKN040 10/06 Q1006 R18L/CLRD// NOSIG
Conditions at: UKBB (BORISPOL'/KIEV , UA) observed 0830 UTC 02 June 2020
Temperature: 10.0°C (50°F)
Dewpoint: 6.0°C (43°F) [RH = 76%]
Pressure (altimeter): 29.70 inches Hg (1006.0 mb)
Winds: from the S (190 degrees) at 12 MPH (10 knots; 5.1 m/s)
Visibility: 6 or more miles (10+ km)
Ceiling: 4000 feet AGL
Clouds: scattered clouds at 2400 feet AGL
broken clouds at 4000 feet AGL
Weather: no significant weather observed at this time

METAR text: UKBB 020800Z 18005MPS 9999 SCT022 BKN040 11/06 Q1005 R18L/CLRD// NOSIG
Conditions at: UKBB (BORISPOL'/KIEV , UA) observed 0800 UTC 02 June 2020
Temperature: 11.0°C (52°F)
Dewpoint: 6.0°C (43°F) [RH = 71%]
Pressure (altimeter): 29.68 inches Hg (1005.0 mb)
Winds: from the S (180 degrees) at 12 MPH (10 knots; 5.1 m/s)
Visibility: 6 or more miles (10+ km)
Ceiling: 4000 feet AGL
Clouds: scattered clouds at 2200 feet AGL
broken clouds at 4000 feet AGL
Weather: no significant weather observed at this time

METAR text: UKBB 020730Z 20007MPS 9999 SCT024 BKN036 11/06 Q1005 R18L/CLRD// NOSIG
Conditions at: UKBB (BORISPOL'/KIEV , UA) observed 0730 UTC 02 June 2020
Temperature: 11.0°C (52°F)
Dewpoint: 6.0°C (43°F) [RH = 71%]
Pressure (altimeter): 29.68 inches Hg (1005.0 mb)
Winds: from the SSW (200 degrees) at 16 MPH (14 knots; 7.2 m/s)
Visibility: 6 or more miles (10+ km)
Ceiling: 3600 feet AGL
Clouds: scattered clouds at 2400 feet AGL
broken clouds at 3600 feet AGL
Weather: no significant weather observed at this time

METAR text: UKBB 020700Z 21005MPS 9999 BKN022 12/07 Q1005 R18L/CLRD// NOSIG
Conditions at: UKBB (BORISPOL'/KIEV , UA) observed 0700 UTC 02 June 2020
Temperature: 12.0°C (54°F)
Dewpoint: 7.0°C (45°F) [RH = 71%]
Pressure (altimeter): 29.68 inches Hg (1005.0 mb)
Winds: from the SSW (210 degrees) at 12 MPH (10 knots; 5.1 m/s)
Visibility: 6 or more miles (10+ km)
Ceiling: 2200 feet AGL
Clouds: broken clouds at 2200 feet AGL
Weather: no significant weather observed at this time

METAR text: UKBB 020630Z 21004MPS 9999 BKN018 10/06 Q1005 R18L/CLRD// NOSIG
Conditions at: UKBB (BORISPOL'/KIEV , UA) observed 0630 UTC 02 June 2020
Temperature: 10.0°C (50°F)
Dewpoint: 6.0°C (43°F) [RH = 76%]
Pressure (altimeter): 29.68 inches Hg (1005.0 mb)
Winds: from the SSW (210 degrees) at 9 MPH (8 knots; 4.1 m/s)
Visibility: 6 or more miles (10+ km)
Ceiling: 1800 feet AGL
Clouds: broken clouds at 1800 feet AGL
Weather: no significant weather observed at this time

METAR text: UKBB 020600Z 22004MPS 9999 BKN016 10/07 Q1005 R18L/CLRD// NOSIG
Conditions at: UKBB (BORISPOL'/KIEV , UA) observed 0600 UTC 02 June 2020
Temperature: 10.0°C (50°F)
Dewpoint: 7.0°C (45°F) [RH = 82%]
Pressure (altimeter): 29.68 inches Hg (1005.0 mb)
Winds: from the SW (220 degrees) at 9 MPH (8 knots; 4.1 m/s)
Visibility: 6 or more miles (10+ km)
Ceiling: 1600 feet AGL
Clouds: broken clouds at 1600 feet AGL
Weather: no significant weather observed at this time

METAR text: UKBB 020530Z 20004MPS 9999 BKN010 10/07 Q1005 R18L/CLRD// NOSIG
Conditions at: UKBB (BORISPOL'/KIEV , UA) observed 0530 UTC 02 June 2020
Temperature: 10.0°C (50°F)
Dewpoint: 7.0°C (45°F) [RH = 82%]
Pressure (altimeter): 29.68 inches Hg (1005.0 mb)
Winds: from the SSW (200 degrees) at 9 MPH (8 knots; 4.1 m/s)
Visibility: 6 or more miles (10+ km)
Ceiling: 1000 feet AGL
Clouds: broken clouds at 1000 feet AGL
Weather: no significant weather observed at this time

Forecast for: UKBB (BORISPOL'/KIEV , UA)
Text: TAF UKBB 031702Z 0318/0418 23003G08MPS 9999 BKN015
Forecast period: 1800 UTC 03 June 2020 to 0500 UTC 04 June 2020
Forecast type: FROM: standard forecast or significant change
Winds: from the SW (230 degrees) at 7 MPH (6 knots; 3.1 m/s)
gusting to 18 MPH (16 knots; 8.2 m/s)
Visibility: 6 or more miles 10+ km)
Ceiling: 1500 feet AGL
Clouds: broken clouds at 1500 feet AGL
Weather: no significant weather forecast for this period
Text: TEMPO 0318/0405 1600 BR BKN005
Forecast period: 1800 UTC 03 June 2020 to 0500 UTC 04 June 2020
Forecast type: TEMPORARY: The following changes expected for less than half the time period
Visibility: 0.99 miles (1.59 km)
Ceiling: 500 feet AGL
Clouds: broken clouds at 500 feet AGL
Weather: BR  (mist)
Text: BECMG 0405/0406 19006G12MPS
Forecast period: 0500 to 1800 UTC 04 June 2020
Forecast type: BECOMING: Conditions expected to become as follows by 0600 UTC 04 June 2020
Winds: from the S (190 degrees) at 14 MPH (12 knots; 6.2 m/s)
gusting to 26 MPH (23 knots; 11.8 m/s)
Visibility: 6 or more miles 10+ km)
Ceiling: 1500 feet AGL
Clouds: broken clouds at 1500 feet AGL
Weather: no significant weather forecast for this period
Text: TEMPO 0406/0409 2100 -SHRA BKN007 BKN015CB
Forecast period: 0600 to 0900 UTC 04 June 2020
Forecast type: TEMPORARY: The following changes expected for less than half the time period
Visibility: 1.30 miles (2.09 km)
Ceiling: 700 feet AGL
Clouds: broken clouds at 700 feet AGL
broken clouds at 1500 feet AGL
Weather: -SHRA  (light rain showers)
Text: TEMPO 0409/0418 VRB10G17MPS 1600 TSRAGR SQ BKN006 BKN012CB
Forecast period: 0900 to 1800 UTC 04 June 2020
Forecast type: TEMPORARY: The following changes expected for less than half the time period
Winds: variable direction winds at 22 MPH (19 knots; 9.8 m/s)
gusting to 38 MPH (33 knots; 17.0 m/s)
Visibility: 0.99 miles (1.59 km)
Ceiling: 600 feet AGL
Clouds: broken clouds at 600 feet AGL
broken clouds at 1200 feet AGL
Weather: TSRA TSGR SQ  (rain associated with thunderstorm(s), hail associated with thunderstorm(s), squal)